sensor_id;sensor_type;location;lat;lon;timestamp;P1;durP1;ratioP1;P2;durP2;ratioP2
22812;SDS011;11573;51.334;3.244;2022-07-23T00:01:20;13.38;;;4.75;;
22812;SDS011;11573;51.334;3.244;2022-07-23T00:03:53;7.70;;;4.22;;
22812;SDS011;11573;51.334;3.244;2022-07-23T00:06:21;8.40;;;4.25;;
22812;SDS011;11573;51.334;3.244;2022-07-23T00:08:49;4.50;;;3.60;;
22812;SDS011;11573;51.334;3.244;2022-07-23T00:11:16;7.55;;;4.35;;
22812;SDS011;11573;51.334;3.244;2022-07-23T00:13:43;5.82;;;4.15;;
22812;SDS011;11573;51.334;3.244;2022-07-23T00:16:10;7.63;;;4.60;;
22812;SDS011;11573;51.334;3.244;2022-07-23T00:18:37;7.97;;;4.32;;
22812;SDS011;11573;51.334;3.244;2022-07-23T00:21:04;6.72;;;4.63;;
22812;SDS011;11573;51.334;3.244;2022-07-23T00:23:32;13.02;;;5.28;;
22812;SDS011;11573;51.334;3.244;2022-07-23T00:25:58;7.63;;;4.85;;
22812;SDS011;11573;51.334;3.244;2022-07-23T00:28:25;7.95;;;4.57;;
22812;SDS011;11573;51.334;3.244;2022-07-23T00:30:52;9.38;;;4.72;;
22812;SDS011;11573;51.334;3.244;2022-07-23T00:33:19;6.93;;;4.47;;
22812;SDS011;11573;51.334;3.244;2022-07-23T00:35:46;9.70;;;4.50;;
22812;SDS011;11573;51.334;3.244;2022-07-23T00:38:13;6.93;;;4.28;;
22812;SDS011;11573;51.334;3.244;2022-07-23T00:40:40;8.50;;;4.93;;
22812;SDS011;11573;51.334;3.244;2022-07-23T00:43:07;7.88;;;4.53;;
22812;SDS011;11573;51.334;3.244;2022-07-23T00:45:35;10.57;;;4.50;;
22812;SDS011;11573;51.334;3.244;2022-07-23T00:48:02;7.57;;;4.35;;
22812;SDS011;11573;51.334;3.244;2022-07-23T00:50:29;14.20;;;5.55;;
22812;SDS011;11573;51.334;3.244;2022-07-23T00:52:56;7.53;;;4.38;;
22812;SDS011;11573;51.334;3.244;2022-07-23T00:55:23;7.82;;;4.85;;
22812;SDS011;11573;51.334;3.244;2022-07-23T00:57:51;11.05;;;5.22;;
22812;SDS011;11573;51.334;3.244;2022-07-23T01:00:19;7.85;;;5.05;;
22812;SDS011;11573;51.334;3.244;2022-07-23T01:02:47;6.43;;;4.43;;
22812;SDS011;11573;51.334;3.244;2022-07-23T01:05:14;6.65;;;4.00;;
22812;SDS011;11573;51.334;3.244;2022-07-23T01:07:41;9.27;;;4.50;;
22812;SDS011;11573;51.334;3.244;2022-07-23T01:10:09;7.43;;;4.20;;
22812;SDS011;11573;51.334;3.244;2022-07-23T01:12:55;7.05;;;4.25;;
22812;SDS011;11573;51.334;3.244;2022-07-23T01:15:22;8.85;;;4.50;;
22812;SDS011;11573;51.334;3.244;2022-07-23T01:17:50;8.38;;;4.30;;
22812;SDS011;11573;51.334;3.244;2022-07-23T01:20:17;5.97;;;4.63;;
22812;SDS011;11573;51.334;3.244;2022-07-23T01:22:45;10.73;;;4.40;;
22812;SDS011;11573;51.334;3.244;2022-07-23T01:25:12;8.45;;;4.53;;
22812;SDS011;11573;51.334;3.244;2022-07-23T01:27:46;12.07;;;4.70;;
22812;SDS011;11573;51.334;3.244;2022-07-23T01:30:14;7.60;;;5.32;;
22812;SDS011;11573;51.334;3.244;2022-07-23T01:32:42;9.57;;;4.95;;
22812;SDS011;11573;51.334;3.244;2022-07-23T01:35:09;10.13;;;4.72;;
22812;SDS011;11573;51.334;3.244;2022-07-23T01:37:37;8.82;;;5.13;;
22812;SDS011;11573;51.334;3.244;2022-07-23T01:40:06;7.75;;;5.45;;
22812;SDS011;11573;51.334;3.244;2022-07-23T01:42:35;8.93;;;5.72;;
22812;SDS011;11573;51.334;3.244;2022-07-23T01:45:04;9.50;;;6.28;;
22812;SDS011;11573;51.334;3.244;2022-07-23T01:47:32;11.20;;;6.88;;
22812;SDS011;11573;51.334;3.244;2022-07-23T01:49:59;6.57;;;5.95;;
22812;SDS011;11573;51.334;3.244;2022-07-23T01:52:58;10.68;;;5.32;;
22812;SDS011;11573;51.334;3.244;2022-07-23T01:55:26;7.10;;;5.35;;
22812;SDS011;11573;51.334;3.244;2022-07-23T01:57:53;7.32;;;6.10;;
22812;SDS011;11573;51.334;3.244;2022-07-23T02:00:22;7.30;;;5.28;;
22812;SDS011;11573;51.334;3.244;2022-07-23T02:02:50;9.93;;;6.15;;
22812;SDS011;11573;51.334;3.244;2022-07-23T02:05:17;8.82;;;6.80;;
22812;SDS011;11573;51.334;3.244;2022-07-23T02:07:45;8.98;;;6.53;;
22812;SDS011;11573;51.334;3.244;2022-07-23T02:10:12;9.00;;;6.38;;
22812;SDS011;11573;51.334;3.244;2022-07-23T02:12:39;7.32;;;6.03;;
22812;SDS011;11573;51.334;3.244;2022-07-23T02:15:08;10.98;;;6.47;;
22812;SDS011;11573;51.334;3.244;2022-07-23T02:17:38;12.07;;;6.57;;
22812;SDS011;11573;51.334;3.244;2022-07-23T02:20:07;7.70;;;6.13;;
22812;SDS011;11573;51.334;3.244;2022-07-23T02:22:35;9.30;;;6.20;;
22812;SDS011;11573;51.334;3.244;2022-07-23T02:25:06;8.85;;;7.05;;
22812;SDS011;11573;51.334;3.244;2022-07-23T02:27:35;8.35;;;5.72;;
22812;SDS011;11573;51.334;3.244;2022-07-23T02:30:04;8.23;;;6.97;;
22812;SDS011;11573;51.334;3.244;2022-07-23T02:32:33;11.02;;;7.10;;
22812;SDS011;11573;51.334;3.244;2022-07-23T02:35:00;13.48;;;7.28;;
22812;SDS011;11573;51.334;3.244;2022-07-23T02:37:29;8.80;;;7.03;;
22812;SDS011;11573;51.334;3.244;2022-07-23T02:39:57;12.23;;;7.70;;
22812;SDS011;11573;51.334;3.244;2022-07-23T02:42:24;11.52;;;7.43;;
22812;SDS011;11573;51.334;3.244;2022-07-23T02:44:51;11.93;;;7.72;;
22812;SDS011;11573;51.334;3.244;2022-07-23T02:47:19;13.45;;;8.45;;
22812;SDS011;11573;51.334;3.244;2022-07-23T02:49:45;9.07;;;7.20;;
22812;SDS011;11573;51.334;3.244;2022-07-23T02:52:12;12.90;;;8.48;;
22812;SDS011;11573;51.334;3.244;2022-07-23T02:54:41;12.25;;;7.85;;
22812;SDS011;11573;51.334;3.244;2022-07-23T02:57:10;10.35;;;7.97;;
22812;SDS011;11573;51.334;3.244;2022-07-23T02:59:37;13.27;;;8.27;;
22812;SDS011;11573;51.334;3.244;2022-07-23T03:02:04;9.35;;;7.57;;
22812;SDS011;11573;51.334;3.244;2022-07-23T03:04:31;13.13;;;8.95;;
22812;SDS011;11573;51.334;3.244;2022-07-23T03:06:58;11.63;;;8.65;;
22812;SDS011;11573;51.334;3.244;2022-07-23T03:09:25;9.25;;;7.60;;
22812;SDS011;11573;51.334;3.244;2022-07-23T03:11:51;13.10;;;8.95;;
22812;SDS011;11573;51.334;3.244;2022-07-23T03:14:19;10.55;;;8.57;;
22812;SDS011;11573;51.334;3.244;2022-07-23T03:16:46;11.63;;;7.80;;
22812;SDS011;11573;51.334;3.244;2022-07-23T03:19:13;12.68;;;7.78;;
22812;SDS011;11573;51.334;3.244;2022-07-23T03:21:40;11.50;;;7.32;;
22812;SDS011;11573;51.334;3.244;2022-07-23T03:24:08;11.77;;;7.70;;
22812;SDS011;11573;51.334;3.244;2022-07-23T03:26:36;11.68;;;7.57;;
22812;SDS011;11573;51.334;3.244;2022-07-23T03:29:03;11.43;;;7.25;;
22812;SDS011;11573;51.334;3.244;2022-07-23T03:31:30;8.85;;;7.13;;
22812;SDS011;11573;51.334;3.244;2022-07-23T03:33:58;8.75;;;7.32;;
22812;SDS011;11573;51.334;3.244;2022-07-23T03:36:26;15.93;;;7.53;;
22812;SDS011;11573;51.334;3.244;2022-07-23T03:38:54;12.15;;;8.80;;
22812;SDS011;11573;51.334;3.244;2022-07-23T03:41:21;18.60;;;9.73;;
22812;SDS011;11573;51.334;3.244;2022-07-23T03:43:48;18.25;;;9.32;;
22812;SDS011;11573;51.334;3.244;2022-07-23T03:46:15;15.35;;;9.23;;
22812;SDS011;11573;51.334;3.244;2022-07-23T03:48:42;12.30;;;7.90;;
22812;SDS011;11573;51.334;3.244;2022-07-23T03:51:09;15.20;;;9.48;;
22812;SDS011;11573;51.334;3.244;2022-07-23T03:53:37;13.52;;;8.70;;
22812;SDS011;11573;51.334;3.244;2022-07-23T03:56:04;13.98;;;9.25;;
22812;SDS011;11573;51.334;3.244;2022-07-23T03:58:31;13.73;;;9.43;;
22812;SDS011;11573;51.334;3.244;2022-07-23T04:00:58;14.77;;;9.82;;
22812;SDS011;11573;51.334;3.244;2022-07-23T04:03:25;13.98;;;9.05;;
22812;SDS011;11573;51.334;3.244;2022-07-23T04:05:52;11.25;;;8.23;;
22812;SDS011;11573;51.334;3.244;2022-07-23T04:08:20;12.50;;;8.65;;
22812;SDS011;11573;51.334;3.244;2022-07-23T04:10:50;12.75;;;9.38;;
22812;SDS011;11573;51.334;3.244;2022-07-23T04:13:17;15.20;;;8.88;;
22812;SDS011;11573;51.334;3.244;2022-07-23T04:15:44;14.52;;;8.27;;
22812;SDS011;11573;51.334;3.244;2022-07-23T04:18:11;14.75;;;9.18;;
22812;SDS011;11573;51.334;3.244;2022-07-23T04:23:15;15.63;;;9.85;;
22812;SDS011;11573;51.334;3.244;2022-07-23T04:25:42;12.23;;;9.13;;
22812;SDS011;11573;51.334;3.244;2022-07-23T04:28:09;11.30;;;8.93;;
22812;SDS011;11573;51.334;3.244;2022-07-23T04:30:36;14.40;;;9.63;;
22812;SDS011;11573;51.334;3.244;2022-07-23T04:33:05;11.57;;;9.45;;
22812;SDS011;11573;51.334;3.244;2022-07-23T04:35:35;16.35;;;9.88;;
22812;SDS011;11573;51.334;3.244;2022-07-23T04:38:11;13.95;;;9.90;;
22812;SDS011;11573;51.334;3.244;2022-07-23T04:40:39;16.73;;;10.65;;
22812;SDS011;11573;51.334;3.244;2022-07-23T04:43:06;14.90;;;10.82;;
22812;SDS011;11573;51.334;3.244;2022-07-23T04:45:39;16.58;;;11.65;;
22812;SDS011;11573;51.334;3.244;2022-07-23T04:48:09;18.20;;;11.38;;
22812;SDS011;11573;51.334;3.244;2022-07-23T04:50:36;17.63;;;10.88;;
22812;SDS011;11573;51.334;3.244;2022-07-23T04:53:03;11.77;;;10.32;;
22812;SDS011;11573;51.334;3.244;2022-07-23T04:55:31;14.32;;;10.25;;
22812;SDS011;11573;51.334;3.244;2022-07-23T04:57:58;13.68;;;10.15;;
22812;SDS011;11573;51.334;3.244;2022-07-23T05:00:25;13.80;;;10.32;;
22812;SDS011;11573;51.334;3.244;2022-07-23T05:02:52;14.40;;;9.93;;
22812;SDS011;11573;51.334;3.244;2022-07-23T05:05:19;12.52;;;10.52;;
22812;SDS011;11573;51.334;3.244;2022-07-23T05:07:47;15.15;;;9.80;;
22812;SDS011;11573;51.334;3.244;2022-07-23T05:10:15;14.68;;;10.45;;
22812;SDS011;11573;51.334;3.244;2022-07-23T05:12:42;16.90;;;11.48;;
22812;SDS011;11573;51.334;3.244;2022-07-23T05:15:09;14.77;;;10.45;;
22812;SDS011;11573;51.334;3.244;2022-07-23T05:17:36;16.30;;;12.15;;
22812;SDS011;11573;51.334;3.244;2022-07-23T05:20:10;16.48;;;11.25;;
22812;SDS011;11573;51.334;3.244;2022-07-23T05:22:37;12.20;;;9.85;;
22812;SDS011;11573;51.334;3.244;2022-07-23T05:25:04;13.10;;;9.43;;
22812;SDS011;11573;51.334;3.244;2022-07-23T05:27:31;14.00;;;10.90;;
22812;SDS011;11573;51.334;3.244;2022-07-23T05:29:59;14.73;;;10.68;;
22812;SDS011;11573;51.334;3.244;2022-07-23T05:32:26;13.63;;;10.05;;
22812;SDS011;11573;51.334;3.244;2022-07-23T05:35:04;16.77;;;10.90;;
22812;SDS011;11573;51.334;3.244;2022-07-23T05:37:36;14.82;;;11.25;;
22812;SDS011;11573;51.334;3.244;2022-07-23T05:40:04;18.80;;;11.32;;
22812;SDS011;11573;51.334;3.244;2022-07-23T05:42:38;11.45;;;9.77;;
22812;SDS011;11573;51.334;3.244;2022-07-23T05:45:06;14.23;;;9.95;;
22812;SDS011;11573;51.334;3.244;2022-07-23T05:47:43;15.43;;;10.18;;
22812;SDS011;11573;51.334;3.244;2022-07-23T05:50:16;16.90;;;9.18;;
22812;SDS011;11573;51.334;3.244;2022-07-23T05:52:46;13.80;;;9.25;;
22812;SDS011;11573;51.334;3.244;2022-07-23T05:55:43;11.63;;;8.68;;
22812;SDS011;11573;51.334;3.244;2022-07-23T05:58:10;16.35;;;9.40;;
22812;SDS011;11573;51.334;3.244;2022-07-23T06:00:37;11.90;;;9.40;;
22812;SDS011;11573;51.334;3.244;2022-07-23T06:03:04;11.80;;;8.82;;
22812;SDS011;11573;51.334;3.244;2022-07-23T06:05:31;12.98;;;9.25;;
22812;SDS011;11573;51.334;3.244;2022-07-23T06:07:58;13.18;;;8.50;;
22812;SDS011;11573;51.334;3.244;2022-07-23T06:10:26;13.10;;;9.38;;
22812;SDS011;11573;51.334;3.244;2022-07-23T06:12:54;13.10;;;9.40;;
22812;SDS011;11573;51.334;3.244;2022-07-23T06:15:28;14.20;;;9.30;;
22812;SDS011;11573;51.334;3.244;2022-07-23T06:17:55;13.43;;;9.23;;
22812;SDS011;11573;51.334;3.244;2022-07-23T06:20:22;10.20;;;8.77;;
22812;SDS011;11573;51.334;3.244;2022-07-23T06:22:49;14.63;;;9.02;;
22812;SDS011;11573;51.334;3.244;2022-07-23T06:25:16;11.00;;;8.30;;
22812;SDS011;11573;51.334;3.244;2022-07-23T06:27:45;11.35;;;8.85;;
22812;SDS011;11573;51.334;3.244;2022-07-23T06:30:13;11.82;;;9.15;;
22812;SDS011;11573;51.334;3.244;2022-07-23T06:32:44;13.23;;;9.13;;
22812;SDS011;11573;51.334;3.244;2022-07-23T06:35:13;13.02;;;9.75;;
22812;SDS011;11573;51.334;3.244;2022-07-23T06:37:40;13.70;;;9.13;;
22812;SDS011;11573;51.334;3.244;2022-07-23T06:40:08;12.50;;;8.98;;
22812;SDS011;11573;51.334;3.244;2022-07-23T06:42:36;11.27;;;8.63;;
22812;SDS011;11573;51.334;3.244;2022-07-23T06:45:05;13.27;;;8.20;;
22812;SDS011;11573;51.334;3.244;2022-07-23T06:47:35;14.13;;;8.77;;
22812;SDS011;11573;51.334;3.244;2022-07-23T06:50:02;15.85;;;8.18;;
22812;SDS011;11573;51.334;3.244;2022-07-23T06:52:29;12.80;;;8.35;;
22812;SDS011;11573;51.334;3.244;2022-07-23T06:54:57;11.48;;;8.50;;
22812;SDS011;11573;51.334;3.244;2022-07-23T06:57:24;13.02;;;8.98;;
22812;SDS011;11573;51.334;3.244;2022-07-23T06:59:52;11.30;;;8.10;;
22812;SDS011;11573;51.334;3.244;2022-07-23T07:02:21;10.98;;;7.53;;
22812;SDS011;11573;51.334;3.244;2022-07-23T07:04:49;11.43;;;7.82;;
22812;SDS011;11573;51.334;3.244;2022-07-23T07:07:16;12.60;;;6.93;;
22812;SDS011;11573;51.334;3.244;2022-07-23T07:09:43;14.57;;;9.63;;
22812;SDS011;11573;51.334;3.244;2022-07-23T07:12:12;14.85;;;9.73;;
22812;SDS011;11573;51.334;3.244;2022-07-23T07:14:39;17.17;;;9.50;;
22812;SDS011;11573;51.334;3.244;2022-07-23T07:17:06;10.77;;;8.88;;
22812;SDS011;11573;51.334;3.244;2022-07-23T07:19:33;16.73;;;10.68;;
22812;SDS011;11573;51.334;3.244;2022-07-23T07:22:00;15.27;;;11.07;;
22812;SDS011;11573;51.334;3.244;2022-07-23T07:24:26;19.15;;;12.50;;
22812;SDS011;11573;51.334;3.244;2022-07-23T07:27:00;15.95;;;10.68;;
22812;SDS011;11573;51.334;3.244;2022-07-23T07:29:27;14.55;;;9.95;;
22812;SDS011;11573;51.334;3.244;2022-07-23T07:31:54;18.08;;;10.30;;
22812;SDS011;11573;51.334;3.244;2022-07-23T07:34:21;15.27;;;9.63;;
22812;SDS011;11573;51.334;3.244;2022-07-23T07:36:48;17.90;;;10.23;;
22812;SDS011;11573;51.334;3.244;2022-07-23T07:39:16;14.82;;;9.38;;
22812;SDS011;11573;51.334;3.244;2022-07-23T07:41:43;14.07;;;10.10;;
22812;SDS011;11573;51.334;3.244;2022-07-23T07:44:10;18.30;;;10.63;;
22812;SDS011;11573;51.334;3.244;2022-07-23T07:46:38;11.95;;;8.05;;
22812;SDS011;11573;51.334;3.244;2022-07-23T07:49:05;11.63;;;8.43;;
22812;SDS011;11573;51.334;3.244;2022-07-23T07:51:32;13.93;;;10.30;;
22812;SDS011;11573;51.334;3.244;2022-07-23T07:54:00;13.40;;;9.73;;
22812;SDS011;11573;51.334;3.244;2022-07-23T07:56:27;13.48;;;8.85;;
22812;SDS011;11573;51.334;3.244;2022-07-23T07:58:55;9.55;;;8.13;;
22812;SDS011;11573;51.334;3.244;2022-07-23T08:01:22;16.83;;;9.95;;
22812;SDS011;11573;51.334;3.244;2022-07-23T08:03:50;17.23;;;10.15;;
22812;SDS011;11573;51.334;3.244;2022-07-23T08:06:19;14.73;;;9.57;;
22812;SDS011;11573;51.334;3.244;2022-07-23T08:08:46;13.30;;;9.95;;
22812;SDS011;11573;51.334;3.244;2022-07-23T08:11:13;15.60;;;10.27;;
22812;SDS011;11573;51.334;3.244;2022-07-23T08:13:41;13.30;;;10.43;;
22812;SDS011;11573;51.334;3.244;2022-07-23T08:16:10;11.23;;;8.70;;
22812;SDS011;11573;51.334;3.244;2022-07-23T08:18:38;16.58;;;10.48;;
22812;SDS011;11573;51.334;3.244;2022-07-23T08:21:05;17.52;;;10.77;;
22812;SDS011;11573;51.334;3.244;2022-07-23T08:23:32;13.80;;;8.60;;
22812;SDS011;11573;51.334;3.244;2022-07-23T08:25:59;16.35;;;11.65;;
22812;SDS011;11573;51.334;3.244;2022-07-23T08:28:27;18.45;;;11.75;;
22812;SDS011;11573;51.334;3.244;2022-07-23T08:30:54;15.70;;;11.13;;
22812;SDS011;11573;51.334;3.244;2022-07-23T08:33:21;14.93;;;11.80;;
22812;SDS011;11573;51.334;3.244;2022-07-23T08:36:00;16.63;;;12.32;;
22812;SDS011;11573;51.334;3.244;2022-07-23T08:38:31;15.75;;;11.07;;
22812;SDS011;11573;51.334;3.244;2022-07-23T08:40:58;19.40;;;12.93;;
22812;SDS011;11573;51.334;3.244;2022-07-23T08:43:27;18.10;;;11.48;;
22812;SDS011;11573;51.334;3.244;2022-07-23T08:45:58;15.80;;;12.07;;
22812;SDS011;11573;51.334;3.244;2022-07-23T08:48:31;14.85;;;11.07;;
22812;SDS011;11573;51.334;3.244;2022-07-23T08:51:00;17.13;;;12.45;;
22812;SDS011;11573;51.334;3.244;2022-07-23T08:53:29;16.55;;;11.68;;
22812;SDS011;11573;51.334;3.244;2022-07-23T08:55:59;18.98;;;13.13;;
22812;SDS011;11573;51.334;3.244;2022-07-23T08:58:29;19.30;;;14.00;;
22812;SDS011;11573;51.334;3.244;2022-07-23T09:00:57;17.25;;;13.43;;
22812;SDS011;11573;51.334;3.244;2022-07-23T09:03:25;20.75;;;13.73;;
22812;SDS011;11573;51.334;3.244;2022-07-23T09:05:54;21.05;;;14.50;;
22812;SDS011;11573;51.334;3.244;2022-07-23T09:11:12;20.25;;;12.55;;
22812;SDS011;11573;51.334;3.244;2022-07-23T09:13:49;18.10;;;13.00;;
22812;SDS011;11573;51.334;3.244;2022-07-23T09:18:57;18.00;;;13.75;;
22812;SDS011;11573;51.334;3.244;2022-07-23T09:21:26;19.25;;;12.10;;
22812;SDS011;11573;51.334;3.244;2022-07-23T09:24:00;15.00;;;10.95;;
22812;SDS011;11573;51.334;3.244;2022-07-23T09:26:38;19.83;;;11.98;;
22812;SDS011;11573;51.334;3.244;2022-07-23T09:34:14;23.90;;;11.77;;
22812;SDS011;11573;51.334;3.244;2022-07-23T09:36:43;20.35;;;13.35;;
22812;SDS011;11573;51.334;3.244;2022-07-23T09:39:10;17.98;;;13.63;;
22812;SDS011;11573;51.334;3.244;2022-07-23T09:41:42;20.45;;;12.10;;
22812;SDS011;11573;51.334;3.244;2022-07-23T09:44:15;19.65;;;12.93;;
22812;SDS011;11573;51.334;3.244;2022-07-23T09:46:45;26.55;;;14.77;;
22812;SDS011;11573;51.334;3.244;2022-07-23T09:51:54;20.98;;;14.00;;
22812;SDS011;11573;51.334;3.244;2022-07-23T09:59:37;21.27;;;13.60;;
22812;SDS011;11573;51.334;3.244;2022-07-23T10:02:08;17.05;;;13.07;;
22812;SDS011;11573;51.334;3.244;2022-07-23T10:04:57;21.35;;;14.77;;
22812;SDS011;11573;51.334;3.244;2022-07-23T10:07:45;21.65;;;14.63;;
22812;SDS011;11573;51.334;3.244;2022-07-23T10:10:41;20.75;;;15.35;;
22812;SDS011;11573;51.334;3.244;2022-07-23T10:13:39;24.70;;;16.25;;
22812;SDS011;11573;51.334;3.244;2022-07-23T10:16:41;22.70;;;14.98;;
22812;SDS011;11573;51.334;3.244;2022-07-23T10:19:09;26.52;;;15.95;;
22812;SDS011;11573;51.334;3.244;2022-07-23T10:21:39;19.63;;;14.73;;
22812;SDS011;11573;51.334;3.244;2022-07-23T10:24:24;25.10;;;15.65;;
22812;SDS011;11573;51.334;3.244;2022-07-23T10:30:04;22.27;;;16.73;;
22812;SDS011;11573;51.334;3.244;2022-07-23T10:35:28;23.48;;;17.02;;
22812;SDS011;11573;51.334;3.244;2022-07-23T10:38:02;27.83;;;17.20;;
22812;SDS011;11573;51.334;3.244;2022-07-23T10:43:25;23.77;;;15.38;;
22812;SDS011;11573;51.334;3.244;2022-07-23T10:45:53;22.40;;;13.88;;
22812;SDS011;11573;51.334;3.244;2022-07-23T10:48:22;22.75;;;16.10;;
22812;SDS011;11573;51.334;3.244;2022-07-23T10:51:07;22.55;;;17.48;;
22812;SDS011;11573;51.334;3.244;2022-07-23T10:59:23;19.23;;;15.02;;
22812;SDS011;11573;51.334;3.244;2022-07-23T11:01:50;25.65;;;19.40;;
22812;SDS011;11573;51.334;3.244;2022-07-23T11:04:18;27.83;;;18.92;;
22812;SDS011;11573;51.334;3.244;2022-07-23T11:17:37;22.73;;;17.75;;
22812;SDS011;11573;51.334;3.244;2022-07-23T11:20:24;24.77;;;19.05;;
22812;SDS011;11573;51.334;3.244;2022-07-23T11:22:54;33.92;;;20.63;;
22812;SDS011;11573;51.334;3.244;2022-07-23T11:28:07;24.73;;;18.27;;
22812;SDS011;11573;51.334;3.244;2022-07-23T11:30:55;27.02;;;19.75;;
22812;SDS011;11573;51.334;3.244;2022-07-23T11:33:22;25.05;;;18.33;;
22812;SDS011;11573;51.334;3.244;2022-07-23T11:35:51;20.02;;;17.70;;
22812;SDS011;11573;51.334;3.244;2022-07-23T11:38:29;27.77;;;20.00;;
22812;SDS011;11573;51.334;3.244;2022-07-23T11:40:57;28.33;;;20.25;;
22812;SDS011;11573;51.334;3.244;2022-07-23T11:43:25;25.20;;;19.77;;
22812;SDS011;11573;51.334;3.244;2022-07-23T11:45:53;24.02;;;19.27;;
22812;SDS011;11573;51.334;3.244;2022-07-23T11:48:28;25.70;;;20.25;;
22812;SDS011;11573;51.334;3.244;2022-07-23T11:50:57;26.58;;;20.77;;
22812;SDS011;11573;51.334;3.244;2022-07-23T11:53:28;24.23;;;20.20;;
22812;SDS011;11573;51.334;3.244;2022-07-23T11:56:06;24.48;;;19.52;;
22812;SDS011;11573;51.334;3.244;2022-07-23T11:58:35;26.55;;;20.92;;
22812;SDS011;11573;51.334;3.244;2022-07-23T12:01:02;28.65;;;21.05;;
22812;SDS011;11573;51.334;3.244;2022-07-23T12:03:30;23.75;;;19.15;;
22812;SDS011;11573;51.334;3.244;2022-07-23T12:05:57;24.83;;;19.85;;
22812;SDS011;11573;51.334;3.244;2022-07-23T12:08:25;24.92;;;19.00;;
22812;SDS011;11573;51.334;3.244;2022-07-23T12:10:53;33.95;;;21.85;;
22812;SDS011;11573;51.334;3.244;2022-07-23T12:13:20;31.35;;;20.95;;
22812;SDS011;11573;51.334;3.244;2022-07-23T12:15:53;28.02;;;20.92;;
22812;SDS011;11573;51.334;3.244;2022-07-23T12:18:23;30.08;;;20.58;;
22812;SDS011;11573;51.334;3.244;2022-07-23T12:20:52;30.83;;;21.40;;
22812;SDS011;11573;51.334;3.244;2022-07-23T12:23:23;28.23;;;21.83;;
22812;SDS011;11573;51.334;3.244;2022-07-23T12:25:51;30.80;;;22.15;;
22812;SDS011;11573;51.334;3.244;2022-07-23T12:30:48;27.23;;;22.38;;
22812;SDS011;11573;51.334;3.244;2022-07-23T12:33:27;30.23;;;21.13;;
22812;SDS011;11573;51.334;3.244;2022-07-23T12:35:58;29.17;;;20.92;;
22812;SDS011;11573;51.334;3.244;2022-07-23T12:38:27;28.60;;;22.60;;
22812;SDS011;11573;51.334;3.244;2022-07-23T12:40:58;26.58;;;20.27;;
22812;SDS011;11573;51.334;3.244;2022-07-23T12:43:29;35.15;;;24.00;;
22812;SDS011;11573;51.334;3.244;2022-07-23T12:54:11;36.10;;;22.63;;
22812;SDS011;11573;51.334;3.244;2022-07-23T12:56:39;34.13;;;23.23;;
22812;SDS011;11573;51.334;3.244;2022-07-23T12:59:14;31.90;;;24.73;;
22812;SDS011;11573;51.334;3.244;2022-07-23T13:01:45;30.77;;;23.33;;
22812;SDS011;11573;51.334;3.244;2022-07-23T13:04:23;31.92;;;23.10;;
22812;SDS011;11573;51.334;3.244;2022-07-23T13:06:52;34.75;;;25.23;;
22812;SDS011;11573;51.334;3.244;2022-07-23T13:09:24;33.80;;;25.67;;
22812;SDS011;11573;51.334;3.244;2022-07-23T13:11:58;32.70;;;26.15;;
22812;SDS011;11573;51.334;3.244;2022-07-23T13:14:26;30.90;;;24.52;;
22812;SDS011;11573;51.334;3.244;2022-07-23T13:16:53;32.50;;;22.65;;
22812;SDS011;11573;51.334;3.244;2022-07-23T13:19:22;33.63;;;26.90;;
22812;SDS011;11573;51.334;3.244;2022-07-23T13:21:50;36.28;;;25.25;;
22812;SDS011;11573;51.334;3.244;2022-07-23T13:24:17;32.63;;;25.65;;
22812;SDS011;11573;51.334;3.244;2022-07-23T13:26:45;26.13;;;20.80;;
22812;SDS011;11573;51.334;3.244;2022-07-23T13:29:13;32.17;;;22.92;;
22812;SDS011;11573;51.334;3.244;2022-07-23T13:31:43;35.17;;;24.55;;
22812;SDS011;11573;51.334;3.244;2022-07-23T13:34:11;33.22;;;23.77;;
22812;SDS011;11573;51.334;3.244;2022-07-23T13:36:38;32.17;;;24.55;;
22812;SDS011;11573;51.334;3.244;2022-07-23T13:39:05;34.25;;;26.67;;
22812;SDS011;11573;51.334;3.244;2022-07-23T13:41:35;30.25;;;24.58;;
22812;SDS011;11573;51.334;3.244;2022-07-23T13:44:04;32.70;;;26.02;;
22812;SDS011;11573;51.334;3.244;2022-07-23T13:46:32;31.77;;;23.00;;
22812;SDS011;11573;51.334;3.244;2022-07-23T13:49:00;33.63;;;23.40;;
22812;SDS011;11573;51.334;3.244;2022-07-23T13:51:28;31.00;;;27.15;;
22812;SDS011;11573;51.334;3.244;2022-07-23T13:53:55;32.08;;;24.15;;
22812;SDS011;11573;51.334;3.244;2022-07-23T13:56:25;36.20;;;26.83;;
22812;SDS011;11573;51.334;3.244;2022-07-23T13:58:52;31.85;;;25.00;;
22812;SDS011;11573;51.334;3.244;2022-07-23T14:01:19;29.60;;;23.08;;
22812;SDS011;11573;51.334;3.244;2022-07-23T14:03:47;32.05;;;23.60;;
22812;SDS011;11573;51.334;3.244;2022-07-23T14:06:15;27.30;;;22.88;;
22812;SDS011;11573;51.334;3.244;2022-07-23T14:08:42;32.22;;;26.48;;
22812;SDS011;11573;51.334;3.244;2022-07-23T14:11:11;25.25;;;22.13;;
22812;SDS011;11573;51.334;3.244;2022-07-23T14:13:39;33.85;;;24.75;;
22812;SDS011;11573;51.334;3.244;2022-07-23T14:16:06;31.92;;;25.33;;
22812;SDS011;11573;51.334;3.244;2022-07-23T14:18:34;27.73;;;23.00;;
22812;SDS011;11573;51.334;3.244;2022-07-23T14:21:01;29.20;;;23.23;;
22812;SDS011;11573;51.334;3.244;2022-07-23T14:23:29;31.17;;;25.20;;
22812;SDS011;11573;51.334;3.244;2022-07-23T14:25:56;28.42;;;24.33;;
22812;SDS011;11573;51.334;3.244;2022-07-23T14:28:23;28.92;;;23.98;;
22812;SDS011;11573;51.334;3.244;2022-07-23T14:30:50;31.77;;;24.80;;
22812;SDS011;11573;51.334;3.244;2022-07-23T14:33:18;35.03;;;24.25;;
22812;SDS011;11573;51.334;3.244;2022-07-23T14:35:46;29.88;;;23.10;;
22812;SDS011;11573;51.334;3.244;2022-07-23T14:38:13;27.75;;;21.48;;
22812;SDS011;11573;51.334;3.244;2022-07-23T14:40:43;29.33;;;22.45;;
22812;SDS011;11573;51.334;3.244;2022-07-23T14:43:10;28.45;;;21.50;;
22812;SDS011;11573;51.334;3.244;2022-07-23T14:45:37;25.73;;;21.15;;
22812;SDS011;11573;51.334;3.244;2022-07-23T14:48:05;30.35;;;24.42;;
22812;SDS011;11573;51.334;3.244;2022-07-23T14:50:33;30.73;;;23.70;;
22812;SDS011;11573;51.334;3.244;2022-07-23T14:53:01;32.35;;;21.77;;
22812;SDS011;11573;51.334;3.244;2022-07-23T14:55:30;28.38;;;24.60;;
22812;SDS011;11573;51.334;3.244;2022-07-23T14:57:59;30.55;;;24.00;;
22812;SDS011;11573;51.334;3.244;2022-07-23T15:00:26;31.77;;;23.60;;
22812;SDS011;11573;51.334;3.244;2022-07-23T15:02:55;27.85;;;23.98;;
22812;SDS011;11573;51.334;3.244;2022-07-23T15:05:23;27.63;;;23.40;;
22812;SDS011;11573;51.334;3.244;2022-07-23T15:07:52;30.40;;;26.98;;
22812;SDS011;11573;51.334;3.244;2022-07-23T15:10:19;30.40;;;25.67;;
22812;SDS011;11573;51.334;3.244;2022-07-23T15:12:48;35.60;;;26.83;;
22812;SDS011;11573;51.334;3.244;2022-07-23T15:15:16;35.45;;;24.85;;
22812;SDS011;11573;51.334;3.244;2022-07-23T15:17:44;26.73;;;22.75;;
22812;SDS011;11573;51.334;3.244;2022-07-23T15:20:11;31.40;;;25.65;;
22812;SDS011;11573;51.334;3.244;2022-07-23T15:22:43;36.55;;;25.67;;
22812;SDS011;11573;51.334;3.244;2022-07-23T15:25:11;29.90;;;24.50;;
22812;SDS011;11573;51.334;3.244;2022-07-23T15:27:38;29.58;;;25.45;;
22812;SDS011;11573;51.334;3.244;2022-07-23T15:30:05;27.27;;;23.60;;
22812;SDS011;11573;51.334;3.244;2022-07-23T15:32:33;33.05;;;24.80;;
22812;SDS011;11573;51.334;3.244;2022-07-23T15:35:00;34.08;;;24.77;;
22812;SDS011;11573;51.334;3.244;2022-07-23T15:37:31;33.00;;;25.77;;
22812;SDS011;11573;51.334;3.244;2022-07-23T15:40:00;29.25;;;24.35;;
22812;SDS011;11573;51.334;3.244;2022-07-23T15:42:28;27.50;;;23.65;;